aviador You're here:

KZPH Decoded Metar

in
Report Time2017-07-21 08:35:00
UTC Time2017-07-21 08:34:41
Flight Rules ifr IFR
WindCalm
Visibility9999 m
Phenomena:N/A
Clouds:Overcast 005 Hf
Expected CloudBase > 400 ft AGL from Temp-Dew spread
Ceiling500 ft
Temp23°C
Dew Point22°C (94% RH)
QNH1017 hPa
Raw Report
KZPH 210835Z AUTO 00000KT 10SM OVC005 23/22 A3003 RMK AO2
T02290224=

Extra information for KZPH:More info

Social comments